Time;durP1;ratioP1;P1;durP2;ratioP2;P2;SDS_P1;SDS_P2;PMS_P1;PMS_P2;Temp;Humidity;BMP_temperature;BMP_pressure;BME280_temperature;BME280_humidity;BME280_pressure;Samples;Min_cycle;Max_cycle;Signal;HPM_P1;HPM_P2
2021/11/13 00:00:36;;;;;;;16.40;5.73;;;6.40;99.90;;;;;;5066056;28;20544;-86
2021/11/13 00:03:05;;;;;;;15.35;6.63;;;6.40;99.90;;;;;;5031068;28;20519;-86
2021/11/13 00:05:36;;;;;;;13.38;6.60;;;6.30;99.90;;;;;;5029933;28;20051;-85
2021/11/13 00:08:05;;;;;;;16.65;6.53;;;6.40;99.90;;;;;;5052193;28;20053;-86
2021/11/13 00:10:33;;;;;;;14.07;5.90;;;6.40;99.90;;;;;;5034174;28;20136;-86
2021/11/13 00:13:06;;;;;;;14.03;6.97;;;6.30;99.90;;;;;;5034932;28;20045;-84
2021/11/13 00:15:38;;;;;;;18.73;6.65;;;6.30;99.90;;;;;;5033711;28;20041;-85
2021/11/13 00:18:09;;;;;;;15.40;6.20;;;6.30;99.90;;;;;;5032331;28;20108;-85
2021/11/13 00:20:39;;;;;;;16.92;6.20;;;6.30;99.90;;;;;;5032685;28;20041;-85
2021/11/13 00:23:09;;;;;;;10.18;4.93;;;6.10;99.90;;;;;;5054317;28;20084;-85
2021/11/13 00:25:38;;;;;;;14.33;5.27;;;6.20;99.90;;;;;;5049344;28;20055;-84
2021/11/13 00:28:09;;;;;;;13.80;5.38;;;6.20;99.90;;;;;;5031023;28;20053;-84
2021/11/13 00:30:41;;;;;;;12.40;5.18;;;6.30;99.90;;;;;;5067372;28;20037;-86
2021/11/13 00:33:34;;;;;;;13.10;5.15;;;6.20;99.90;;;;;;5035056;28;20060;-84
2021/11/13 00:36:07;;;;;;;12.52;5.32;;;6.20;99.90;;;;;;5055028;28;20055;-85
2021/11/13 00:38:36;;;;;;;12.80;4.77;;;6.10;99.90;;;;;;5052346;28;20064;-85
2021/11/13 00:41:08;;;;;;;15.88;5.30;;;6.20;99.90;;;;;;5049694;28;20140;-85
2021/11/13 00:43:38;;;;;;;14.02;5.28;;;6.20;99.90;;;;;;5050262;28;20128;-85
2021/11/13 00:46:07;;;;;;;9.95;4.07;;;6.20;99.90;;;;;;5041846;28;20072;-85
2021/11/13 00:48:35;;;;;;;7.35;4.13;;;6.10;99.90;;;;;;5066507;28;20068;-85
2021/11/13 00:51:30;;;;;;;9.97;4.57;;;6.00;99.90;;;;;;5047928;28;20048;-85
2021/11/13 00:53:59;;;;;;;10.13;4.57;;;6.10;99.90;;;;;;5033038;28;20075;-85
2021/11/13 00:56:28;;;;;;;10.02;4.60;;;6.10;99.90;;;;;;5049426;28;20136;-86
2021/11/13 00:58:58;;;;;;;8.93;3.88;;;6.10;99.90;;;;;;5029401;28;20049;-85
2021/11/13 01:01:27;;;;;;;9.38;4.10;;;6.10;99.90;;;;;;5030714;28;20049;-86
2021/11/13 01:03:56;;;;;;;10.03;4.70;;;6.10;99.90;;;;;;5033715;28;20144;-85
2021/11/13 01:06:25;;;;;;;10.43;3.72;;;6.10;99.90;;;;;;5033387;28;20052;-85
2021/11/13 01:08:54;;;;;;;8.73;4.07;;;6.20;99.90;;;;;;5033757;28;20123;-85
2021/11/13 01:11:23;;;;;;;12.90;5.63;;;6.20;99.90;;;;;;5031186;28;20064;-86
2021/11/13 01:13:52;;;;;;;7.47;3.35;;;6.20;99.90;;;;;;5023154;28;20139;-85
2021/11/13 01:16:24;;;;;;;11.47;4.30;;;6.10;99.90;;;;;;5028598;28;20430;-86
2021/11/13 01:18:53;;;;;;;9.82;3.72;;;6.00;99.90;;;;;;5049372;28;20045;-85
2021/11/13 01:21:23;;;;;;;7.90;4.55;;;6.10;99.90;;;;;;5048770;28;20501;-86
2021/11/13 01:24:42;;;;;;;12.27;5.30;;;6.00;99.90;;;;;;5032369;28;20124;-85
2021/11/13 01:27:12;;;;;;;11.25;4.38;;;6.10;99.90;;;;;;5043169;28;20057;-85
2021/11/13 01:29:42;;;;;;;9.70;4.40;;;6.10;99.90;;;;;;5049061;28;20056;-86
2021/11/13 01:32:13;;;;;;;15.20;5.22;;;6.10;99.90;;;;;;5048627;28;20085;-85
2021/11/13 01:34:44;;;;;;;11.15;4.65;;;6.10;99.90;;;;;;5046719;28;20041;-85
2021/11/13 01:37:16;;;;;;;13.63;5.32;;;6.10;99.90;;;;;;5043716;28;20438;-85
2021/11/13 01:39:45;;;;;;;9.88;4.05;;;6.10;99.90;;;;;;5042138;28;20045;-85
2021/11/13 01:42:13;;;;;;;14.57;5.03;;;6.20;99.90;;;;;;5032854;28;20152;-85
2021/11/13 01:44:42;;;;;;;10.73;4.53;;;6.20;99.90;;;;;;5027694;28;20045;-85
2021/11/13 01:47:13;;;;;;;8.20;4.32;;;6.20;99.90;;;;;;5038817;28;20052;-85
2021/11/13 01:49:43;;;;;;;12.02;5.25;;;6.30;99.90;;;;;;5043323;28;20056;-85
2021/11/13 01:52:13;;;;;;;10.60;4.40;;;6.20;99.90;;;;;;5029820;28;20135;-85
2021/11/13 01:54:44;;;;;;;11.03;4.63;;;6.20;99.90;;;;;;5026321;28;20049;-86
2021/11/13 01:57:21;;;;;;;11.13;4.30;;;6.20;99.90;;;;;;5029926;28;20045;-85
2021/11/13 01:59:51;;;;;;;11.57;4.53;;;6.30;99.90;;;;;;5027385;28;20053;-85
2021/11/13 02:02:22;;;;;;;10.73;4.43;;;6.30;99.90;;;;;;5027455;28;20053;-85
2021/11/13 02:04:52;;;;;;;12.77;4.45;;;6.20;99.90;;;;;;5028023;28;20056;-85
2021/11/13 02:07:22;;;;;;;9.00;3.83;;;6.10;99.90;;;;;;5060498;28;20061;-86
2021/11/13 02:09:51;;;;;;;11.05;4.25;;;6.10;99.90;;;;;;5062588;28;20045;-85
2021/11/13 02:12:24;;;;;;;9.10;3.85;;;6.00;99.90;;;;;;5048483;28;20090;-85
2021/11/13 02:14:53;;;;;;;9.98;4.68;;;6.00;99.90;;;;;;5044698;28;20128;-86
2021/11/13 02:17:24;;;;;;;7.57;3.38;;;5.90;99.90;;;;;;5031546;28;20128;-85
2021/11/13 02:19:54;;;;;;;13.80;4.57;;;6.00;99.90;;;;;;5031692;28;20077;-86
2021/11/13 02:22:24;;;;;;;9.15;3.85;;;5.90;99.90;;;;;;5040404;28;20047;-86
2021/11/13 02:24:53;;;;;;;9.40;4.78;;;5.90;99.90;;;;;;5059354;28;20041;-85
2021/11/13 02:27:21;;;;;;;10.57;3.97;;;6.00;99.90;;;;;;5031989;28;20053;-85
2021/11/13 02:29:50;;;;;;;8.73;4.05;;;6.00;99.90;;;;;;5031268;28;20140;-85
2021/11/13 02:32:19;;;;;;;13.57;5.57;;;6.00;99.90;;;;;;5064482;28;20370;-85
2021/11/13 02:34:51;;;;;;;12.32;4.50;;;6.10;99.90;;;;;;5028420;28;20111;-86
2021/11/13 02:37:47;;;;;;;14.20;4.43;;;6.00;99.90;;;;;;5030106;28;20045;-85
2021/11/13 02:40:17;;;;;;;11.40;5.03;;;6.00;99.90;;;;;;5036767;28;20132;-86
2021/11/13 02:42:47;;;;;;;11.15;4.28;;;6.10;99.90;;;;;;5031237;28;20076;-85
2021/11/13 02:45:18;;;;;;;9.60;4.47;;;6.00;99.90;;;;;;5032863;28;20426;-85
2021/11/13 02:47:50;;;;;;;11.02;5.05;;;6.00;99.90;;;;;;5047239;28;20071;-86
2021/11/13 02:50:21;;;;;;;8.88;3.80;;;6.00;99.90;;;;;;5048531;28;20061;-85
2021/11/13 02:52:55;;;;;;;7.40;3.22;;;6.00;99.90;;;;;;5049985;28;20056;-84
2021/11/13 02:55:24;;;;;;;8.63;4.15;;;6.00;99.90;;;;;;5063522;28;20108;-84
2021/11/13 02:57:55;;;;;;;10.20;4.17;;;6.00;99.90;;;;;;5084055;28;20029;-85
2021/11/13 03:00:35;;;;;;;7.07;3.95;;;6.10;99.90;;;;;;5041864;28;20512;-85
2021/11/13 03:03:04;;;;;;;9.63;4.43;;;6.10;99.90;;;;;;5042613;28;20110;-84
2021/11/13 03:05:35;;;;;;;8.15;3.58;;;6.20;99.90;;;;;;5058959;28;20049;-84
2021/11/13 03:08:06;;;;;;;9.85;3.90;;;6.20;99.90;;;;;;5041906;28;20117;-85
2021/11/13 03:10:37;;;;;;;8.90;3.30;;;6.10;99.90;;;;;;5044871;28;20052;-86
2021/11/13 03:13:07;;;;;;;7.93;3.85;;;6.30;99.90;;;;;;5041686;28;20113;-86
2021/11/13 03:15:36;;;;;;;7.38;3.70;;;6.20;99.90;;;;;;5029821;28;20128;-86
2021/11/13 03:18:05;;;;;;;7.78;3.85;;;6.10;99.90;;;;;;5042462;28;20041;-84
2021/11/13 03:20:34;;;;;;;11.80;4.68;;;6.10;99.90;;;;;;5047589;28;20048;-85
2021/11/13 03:23:03;;;;;;;10.73;4.00;;;6.10;99.90;;;;;;5061401;28;20053;-86
2021/11/13 03:25:38;;;;;;;7.85;3.90;;;6.10;99.90;;;;;;5045205;28;20220;-86
2021/11/13 03:28:18;;;;;;;7.68;3.25;;;6.00;99.90;;;;;;5054289;28;20052;-86
2021/11/13 03:30:51;;;;;;;8.50;4.00;;;6.10;99.90;;;;;;5049924;28;20065;-85
2021/11/13 03:33:21;;;;;;;7.97;3.80;;;6.00;99.90;;;;;;5055921;28;20040;-85
2021/11/13 03:35:50;;;;;;;9.27;3.53;;;6.00;99.90;;;;;;5052059;28;20112;-85
2021/11/13 03:38:19;;;;;;;11.40;4.68;;;6.10;99.90;;;;;;5072542;28;20047;-86
2021/11/13 03:40:50;;;;;;;13.95;4.18;;;6.20;99.90;;;;;;5058385;28;20049;-84
2021/11/13 03:43:18;;;;;;;10.18;4.03;;;6.10;99.90;;;;;;5033086;28;20060;-85
2021/11/13 03:45:48;;;;;;;9.10;3.78;;;6.20;99.90;;;;;;5062028;28;20041;-85
2021/11/13 03:48:18;;;;;;;7.73;4.10;;;6.30;99.90;;;;;;5031004;28;20549;-85
2021/11/13 03:50:48;;;;;;;8.57;3.53;;;6.30;99.90;;;;;;5036224;28;20052;-84
2021/11/13 03:53:17;;;;;;;9.60;3.95;;;6.20;99.90;;;;;;5035195;28;20055;-85
2021/11/13 03:55:46;;;;;;;8.45;3.25;;;6.30;99.90;;;;;;5065553;28;20041;-85
2021/11/13 03:58:18;;;;;;;10.35;3.80;;;6.20;99.90;;;;;;5035874;28;20103;-85
2021/11/13 04:00:51;;;;;;;9.60;3.43;;;6.20;99.90;;;;;;5049671;28;20042;-84
2021/11/13 04:03:20;;;;;;;8.57;3.30;;;6.20;99.90;;;;;;5052648;28;20131;-85
2021/11/13 04:05:49;;;;;;;11.90;3.53;;;6.20;99.90;;;;;;5033722;28;20098;-84
2021/11/13 04:08:18;;;;;;;7.43;3.80;;;6.20;99.90;;;;;;5048977;28;20110;-85
2021/11/13 04:10:49;;;;;;;6.97;3.13;;;6.10;99.90;;;;;;5049502;28;20090;-85
2021/11/13 04:13:20;;;;;;;7.87;2.93;;;6.10;99.90;;;;;;5035363;28;20131;-84
2021/11/13 04:15:49;;;;;;;9.98;2.92;;;6.10;99.90;;;;;;5047120;28;20068;-84
2021/11/13 04:18:18;;;;;;;10.30;4.05;;;6.10;99.90;;;;;;5050715;28;20048;-84
2021/11/13 04:20:48;;;;;;;10.55;2.97;;;6.10;99.90;;;;;;5030702;28;20045;-85
2021/11/13 04:23:18;;;;;;;9.90;3.80;;;6.10;99.90;;;;;;5047370;28;20083;-86
2021/11/13 04:25:47;;;;;;;10.47;4.70;;;6.10;99.90;;;;;;5035070;28;20053;-85
2021/11/13 04:28:16;;;;;;;8.02;2.88;;;6.10;99.90;;;;;;5034541;28;20132;-85
2021/11/13 04:30:50;;;;;;;7.53;3.50;;;6.10;99.90;;;;;;5028535;28;20044;-84
2021/11/13 04:33:19;;;;;;;6.65;3.03;;;6.20;99.90;;;;;;5033888;28;20048;-84
2021/11/13 04:36:00;;;;;;;8.45;2.90;;;6.20;99.90;;;;;;5025403;28;20094;-85
2021/11/13 04:38:29;;;;;;;7.23;2.90;;;6.10;99.90;;;;;;5033480;28;20045;-85
2021/11/13 04:40:58;;;;;;;7.07;2.75;;;6.00;99.90;;;;;;5032907;28;20059;-85
2021/11/13 04:43:26;;;;;;;7.45;3.15;;;6.00;99.90;;;;;;5026824;28;20049;-84
2021/11/13 04:45:56;;;;;;;11.55;3.97;;;6.00;99.90;;;;;;5048091;28;20040;-85
2021/11/13 04:48:25;;;;;;;7.53;3.13;;;5.90;99.90;;;;;;5047495;28;20134;-86
2021/11/13 04:50:57;;;;;;;9.77;3.27;;;5.90;99.90;;;;;;5049299;28;20072;-86
2021/11/13 04:53:27;;;;;;;5.72;2.38;;;5.90;99.90;;;;;;5024586;28;20077;-85
2021/11/13 04:55:56;;;;;;;8.50;2.88;;;6.00;99.90;;;;;;5027234;28;20122;-86
2021/11/13 04:58:25;;;;;;;7.80;2.50;;;5.90;99.90;;;;;;5025698;28;20041;-85
2021/11/13 05:00:54;;;;;;;8.75;3.88;;;6.00;99.90;;;;;;5044863;28;20037;-86
2021/11/13 05:03:25;;;;;;;4.97;2.37;;;5.90;99.90;;;;;;5047249;28;20080;-85
2021/11/13 05:05:54;;;;;;;6.07;2.53;;;5.90;99.90;;;;;;5026076;28;20053;-85
2021/11/13 05:08:26;;;;;;;8.20;2.40;;;5.90;99.90;;;;;;5029365;28;20110;-86
2021/11/13 05:10:55;;;;;;;6.25;2.00;;;5.90;99.90;;;;;;5030840;28;20060;-86
2021/11/13 05:13:24;;;;;;;6.07;2.60;;;5.90;99.90;;;;;;5028929;28;20037;-86
2021/11/13 05:15:53;;;;;;;8.17;2.83;;;5.90;99.90;;;;;;5027972;28;20095;-85
2021/11/13 05:18:22;;;;;;;6.53;3.35;;;5.90;99.90;;;;;;5033127;28;20067;-86
2021/11/13 05:20:53;;;;;;;7.97;2.90;;;5.90;99.90;;;;;;5031600;28;20068;-85
2021/11/13 05:23:22;;;;;;;6.32;2.47;;;5.80;99.90;;;;;;5031075;28;20092;-85
2021/11/13 05:25:51;;;;;;;8.30;2.53;;;5.90;99.90;;;;;;5026342;28;20803;-85
2021/11/13 05:28:20;;;;;;;8.40;2.77;;;5.80;99.90;;;;;;5033825;28;20052;-86
2021/11/13 05:30:51;;;;;;;6.65;2.60;;;5.80;99.90;;;;;;5030956;28;20045;-86
2021/11/13 05:33:20;;;;;;;9.82;4.65;;;5.80;99.90;;;;;;5032146;28;20186;-86
2021/11/13 05:35:48;;;;;;;10.52;3.00;;;5.90;99.90;;;;;;5033379;28;20127;-86
2021/11/13 05:38:19;;;;;;;17.00;7.90;;;5.90;99.90;;;;;;5047312;28;20125;-85
2021/11/13 05:40:48;;;;;;;12.30;5.10;;;5.90;99.90;;;;;;5026310;28;20488;-86
2021/11/13 05:43:16;;;;;;;10.60;2.95;;;5.80;99.90;;;;;;5066594;28;20410;-85
2021/11/13 05:45:47;;;;;;;6.78;2.90;;;5.90;99.90;;;;;;5034479;28;20055;-86
2021/11/13 05:48:16;;;;;;;5.45;3.00;;;5.90;99.90;;;;;;5033124;28;20067;-86
2021/11/13 05:50:46;;;;;;;7.80;3.53;;;5.90;99.90;;;;;;5025219;28;20361;-86
2021/11/13 05:53:17;;;;;;;9.40;2.90;;;5.90;99.90;;;;;;5048393;28;20153;-85
2021/11/13 05:55:47;;;;;;;6.00;2.85;;;5.90;99.90;;;;;;5026090;28;20076;-86
2021/11/13 05:58:18;;;;;;;7.30;2.55;;;5.90;99.90;;;;;;5048462;28;20112;-85
2021/11/13 06:00:48;;;;;;;8.60;3.33;;;5.80;99.90;;;;;;5032000;28;20057;-85
2021/11/13 06:03:17;;;;;;;9.98;2.85;;;5.90;99.90;;;;;;5047042;28;20148;-86
2021/11/13 06:05:46;;;;;;;9.43;3.13;;;5.90;99.90;;;;;;5035248;28;20080;-86
2021/11/13 06:08:15;;;;;;;8.73;3.35;;;5.90;99.90;;;;;;5031882;28;20121;-86
2021/11/13 06:10:43;;;;;;;7.90;3.10;;;5.80;99.90;;;;;;5031621;28;20048;-86
2021/11/13 06:13:13;;;;;;;7.20;2.90;;;5.70;99.90;;;;;;5031132;28;20045;-86
2021/11/13 06:15:42;;;;;;;5.45;2.53;;;5.70;99.90;;;;;;5030731;28;20059;-86
2021/11/13 06:18:14;;;;;;;11.43;3.20;;;5.70;99.90;;;;;;5027666;28;20063;-86
2021/11/13 06:20:43;;;;;;;8.43;2.75;;;5.80;99.90;;;;;;5030705;28;20045;-85
2021/11/13 06:23:12;;;;;;;6.90;2.78;;;5.80;99.90;;;;;;5037468;28;20155;-86
2021/11/13 06:25:40;;;;;;;6.68;2.63;;;5.70;99.90;;;;;;5049898;28;20124;-85
2021/11/13 06:28:10;;;;;;;5.43;3.22;;;5.80;99.90;;;;;;5062918;28;20055;-85
2021/11/13 06:30:40;;;;;;;6.03;2.80;;;5.80;99.90;;;;;;5056722;28;20071;-85
2021/11/13 06:33:37;;;;;;;4.97;2.15;;;5.80;99.90;;;;;;5062547;28;20102;-85
2021/11/13 06:36:09;;;;;;;6.75;2.83;;;6.00;99.90;;;;;;5049762;28;20059;-85
2021/11/13 06:38:38;;;;;;;7.75;3.20;;;5.90;99.90;;;;;;5048087;28;20053;-85
2021/11/13 06:41:09;;;;;;;6.47;2.90;;;5.90;99.90;;;;;;5037056;28;20049;-85
2021/11/13 06:43:40;;;;;;;8.27;3.00;;;5.90;99.90;;;;;;5055883;28;20132;-86
2021/11/13 06:46:10;;;;;;;11.60;4.47;;;5.80;99.90;;;;;;5036753;28;20148;-84
2021/11/13 06:49:04;;;;;;;9.02;3.40;;;6.00;99.90;;;;;;5071473;28;20126;-84
2021/11/13 06:51:34;;;;;;;9.80;4.00;;;6.00;99.90;;;;;;5032885;28;20529;-82
2021/11/13 06:54:03;;;;;;;7.18;3.00;;;6.20;99.90;;;;;;5053747;28;20076;-86
2021/11/13 06:56:32;;;;;;;5.43;2.90;;;6.00;99.90;;;;;;5046261;28;20052;-86
2021/11/13 06:59:01;;;;;;;6.97;2.40;;;6.00;99.90;;;;;;5053871;28;20041;-86
2021/11/13 07:01:31;;;;;;;5.95;2.55;;;6.00;99.90;;;;;;5021522;28;20053;-79
2021/11/13 07:04:00;;;;;;;7.50;3.13;;;6.10;99.90;;;;;;5045089;28;20142;-79
2021/11/13 07:06:30;;;;;;;6.32;2.70;;;6.10;99.90;;;;;;5047796;28;20363;-76
2021/11/13 07:08:58;;;;;;;6.57;2.23;;;6.20;99.90;;;;;;5049976;28;20057;-83
2021/11/13 07:11:28;;;;;;;5.32;2.13;;;6.20;99.90;;;;;;5033779;28;20079;-82
2021/11/13 07:13:57;;;;;;;5.45;2.58;;;6.30;99.90;;;;;;5030460;28;20064;-85
2021/11/13 07:16:25;;;;;;;4.30;1.98;;;6.30;99.90;;;;;;5036852;28;20440;-82
2021/11/13 07:18:56;;;;;;;7.43;2.70;;;6.30;99.90;;;;;;4996366;28;20049;-86
2021/11/13 07:21:25;;;;;;;4.73;2.20;;;6.30;99.90;;;;;;5024791;28;20064;-83
2021/11/13 07:23:59;;;;;;;7.65;2.22;;;6.40;99.90;;;;;;5040603;28;20484;-83
2021/11/13 07:26:29;;;;;;;6.60;2.78;;;6.40;99.90;;;;;;5043180;28;20056;-83
2021/11/13 07:29:02;;;;;;;6.88;2.58;;;6.40;99.90;;;;;;5034079;28;20073;-84
2021/11/13 07:31:54;;;;;;;6.00;2.20;;;6.50;99.90;;;;;;5049090;28;20084;-87
2021/11/13 07:34:25;;;;;;;7.50;2.70;;;6.50;99.90;;;;;;5027536;28;20048;-85
2021/11/13 07:36:54;;;;;;;5.53;2.25;;;6.50;99.90;;;;;;5055064;28;20056;-84
2021/11/13 07:39:23;;;;;;;6.05;2.58;;;6.50;99.90;;;;;;5054365;28;20053;-85
2021/11/13 07:41:52;;;;;;;6.85;2.45;;;6.50;99.90;;;;;;5055602;28;20060;-86
2021/11/13 07:44:21;;;;;;;7.93;3.60;;;6.50;99.90;;;;;;5050661;28;20045;-85
2021/11/13 08:56:27;;;;;;;6.30;2.90;;;23.70;93.70;;;;;;5059847;27;2058342;-85
2021/11/13 08:58:59;;;;;;;6.38;2.83;;;15.70;90.40;;;;;;5060091;28;20052;-85
2021/11/13 09:01:30;;;;;;;6.28;2.92;;;12.70;95.20;;;;;;5074169;28;20078;-81
2021/11/13 09:04:00;;;;;;;5.80;3.10;;;10.90;98.80;;;;;;5074255;28;20109;-81
2021/11/13 09:06:31;;;;;;;5.78;2.70;;;9.90;99.90;;;;;;5091644;28;20417;-82
2021/11/13 09:09:01;;;;;;;7.13;3.10;;;9.10;99.90;;;;;;5069857;28;20360;-79
2021/11/13 09:11:34;;;;;;;6.80;3.30;;;8.60;99.90;;;;;;5086790;28;20478;-82
2021/11/13 09:14:06;;;;;;;6.88;2.80;;;8.30;99.90;;;;;;5085407;28;20126;-81
2021/11/13 09:16:36;;;;;;;6.53;2.92;;;8.00;99.90;;;;;;5107135;28;20486;-83
2021/11/13 09:19:06;;;;;;;7.93;3.13;;;7.80;99.90;;;;;;5074321;28;20104;-84
2021/11/13 09:21:38;;;;;;;7.53;3.13;;;7.80;99.90;;;;;;5078987;28;20112;-81
2021/11/13 09:24:09;;;;;;;5.80;2.90;;;7.60;99.90;;;;;;5077467;28;20050;-81
2021/11/13 09:26:54;;;;;;;7.70;2.95;;;7.60;99.90;;;;;;5101626;28;20104;-81
2021/11/13 09:29:23;;;;;;;6.45;2.88;;;7.60;99.90;;;;;;5094086;28;20051;-81
2021/11/13 09:31:52;;;;;;;7.07;2.65;;;7.50;99.90;;;;;;5076191;28;20043;-81
2021/11/13 09:34:22;;;;;;;6.40;2.67;;;7.60;99.90;;;;;;5119709;28;20055;-81
2021/11/13 09:36:53;;;;;;;6.40;2.97;;;7.50;99.90;;;;;;5085735;28;20130;-81
2021/11/13 09:39:22;;;;;;;6.45;2.90;;;7.60;99.90;;;;;;5072980;28;20072;-82
2021/11/13 09:41:54;;;;;;;6.10;3.03;;;7.60;99.90;;;;;;5088558;28;20078;-82
2021/11/13 09:44:23;;;;;;;7.97;2.92;;;7.60;99.90;;;;;;5090970;28;20056;-81
2021/11/13 09:46:52;;;;;;;6.77;2.83;;;7.50;99.90;;;;;;5089106;28;20374;-81
2021/11/13 09:49:24;;;;;;;6.57;2.80;;;7.70;99.90;;;;;;5073968;28;20126;-81
2021/11/13 09:54:46;;;;;;;7.57;3.20;;;7.70;99.90;;;;;;5070096;28;20076;-81
2021/11/13 09:57:17;;;;;;;9.45;3.08;;;7.70;99.90;;;;;;5063649;28;20062;-80
2021/11/13 09:59:47;;;;;;;7.93;3.47;;;7.70;99.90;;;;;;5067575;28;20133;-81
2021/11/13 10:02:16;;;;;;;5.97;3.28;;;7.70;99.90;;;;;;5086973;28;20048;-82
2021/11/13 10:04:46;;;;;;;7.57;3.03;;;7.80;99.90;;;;;;5087270;28;20533;-81
2021/11/13 10:07:15;;;;;;;6.75;2.95;;;7.80;99.90;;;;;;5073257;28;20059;-81
2021/11/13 10:09:44;;;;;;;5.85;2.92;;;7.80;99.90;;;;;;5055474;28;20135;-81
2021/11/13 10:12:15;;;;;;;6.30;2.83;;;7.90;99.90;;;;;;5048176;28;20072;-81
2021/11/13 10:15:30;;;;;;;5.93;3.10;;;8.00;99.90;;;;;;5073375;28;20061;-81
2021/11/13 10:18:11;;;;;;;6.55;2.78;;;8.10;99.90;;;;;;5051224;28;20105;-82
2021/11/13 10:20:45;;;;;;;9.13;3.53;;;8.10;99.90;;;;;;5049304;28;20048;-81
2021/11/13 10:26:32;;;;;;;6.03;3.20;;;8.20;99.90;;;;;;5048426;28;20041;-82
2021/11/13 10:29:04;;;;;;;11.45;3.90;;;8.30;99.90;;;;;;5047370;28;20113;-82
2021/11/13 10:31:42;;;;;;;7.88;3.88;;;8.20;99.90;;;;;;5053657;28;20040;-81
2021/11/13 10:34:13;;;;;;;7.10;3.50;;;8.20;99.90;;;;;;5050605;28;20051;-82
2021/11/13 10:36:43;;;;;;;8.75;3.42;;;8.20;99.90;;;;;;5046642;28;20041;-82
2021/11/13 10:39:14;;;;;;;9.77;4.07;;;8.10;99.90;;;;;;5052273;28;20140;-82
2021/11/13 10:41:48;;;;;;;8.70;4.10;;;8.10;99.90;;;;;;5053216;28;20037;-81
2021/11/13 10:44:23;;;;;;;11.00;4.15;;;8.00;99.90;;;;;;5050761;28;20059;-81
2021/11/13 10:46:55;;;;;;;8.05;3.60;;;8.00;99.90;;;;;;5065763;28;20436;-81
2021/11/13 10:49:25;;;;;;;7.88;3.85;;;8.00;99.90;;;;;;5056983;28;20064;-82
2021/11/13 10:52:00;;;;;;;6.63;3.07;;;7.90;99.90;;;;;;5063563;28;20048;-81
2021/11/13 10:54:31;;;;;;;9.32;4.60;;;7.90;99.90;;;;;;5051189;28;20065;-81
2021/11/13 10:57:02;;;;;;;12.10;4.18;;;7.90;99.90;;;;;;5064070;28;20085;-82
2021/11/13 10:59:32;;;;;;;8.65;3.83;;;7.80;99.90;;;;;;5059277;28;20052;-81
2021/11/13 11:02:05;;;;;;;10.57;4.20;;;7.70;99.90;;;;;;5051157;28;20052;-81
2021/11/13 11:04:36;;;;;;;9.77;3.97;;;7.80;99.90;;;;;;5070298;28;20044;-81
2021/11/13 11:07:08;;;;;;;8.80;3.80;;;7.80;99.90;;;;;;5062099;28;20052;-81
2021/11/13 11:09:38;;;;;;;10.15;4.13;;;7.90;99.90;;;;;;5048516;28;20076;-81
2021/11/13 11:12:10;;;;;;;6.47;3.08;;;7.80;99.90;;;;;;5063849;28;20054;-81
2021/11/13 11:14:43;;;;;;;10.27;3.47;;;7.90;99.90;;;;;;5040761;28;20139;-80
2021/11/13 11:17:17;;;;;;;9.97;3.90;;;8.00;99.90;;;;;;5043948;28;20063;-82
2021/11/13 11:19:50;;;;;;;7.95;3.85;;;8.00;99.90;;;;;;5049454;28;20051;-81
2021/11/13 11:22:24;;;;;;;7.60;3.97;;;8.10;99.90;;;;;;5058614;28;20076;-81
2021/11/13 11:24:54;;;;;;;8.48;3.58;;;8.00;99.90;;;;;;5060227;28;20053;-82
2021/11/13 11:27:27;;;;;;;7.88;3.53;;;8.00;99.90;;;;;;5065617;28;20435;-81
2021/11/13 11:30:00;;;;;;;8.20;3.53;;;8.10;99.90;;;;;;5066694;28;20056;-82
2021/11/13 11:32:32;;;;;;;10.48;4.10;;;8.20;99.90;;;;;;5050594;28;20144;-82
2021/11/13 11:35:05;;;;;;;11.50;4.20;;;8.20;99.90;;;;;;5059549;28;20044;-82
2021/11/13 11:37:35;;;;;;;8.82;4.07;;;8.20;99.90;;;;;;5062614;28;20099;-81
2021/11/13 11:40:07;;;;;;;9.05;4.30;;;8.20;99.90;;;;;;5051517;28;20048;-81
2021/11/13 11:42:36;;;;;;;9.67;4.13;;;8.30;99.90;;;;;;5046491;28;20058;-80
2021/11/13 11:45:07;;;;;;;9.43;3.80;;;8.20;99.90;;;;;;5051437;28;20127;-81
2021/11/13 11:47:38;;;;;;;9.55;4.72;;;8.30;99.90;;;;;;5060795;28;20128;-82
2021/11/13 11:50:11;;;;;;;8.38;4.18;;;8.30;99.90;;;;;;5069906;28;20040;-82
2021/11/13 11:52:43;;;;;;;9.70;3.92;;;8.40;99.90;;;;;;5051822;28;20123;-81
2021/11/13 11:55:14;;;;;;;10.20;4.40;;;8.30;99.90;;;;;;5049401;28;20049;-82
2021/11/13 12:00:41;;;;;;;10.15;3.92;;;8.30;99.90;;;;;;5078540;28;20079;-83
2021/11/13 12:03:26;;;;;;;10.73;3.90;;;8.30;99.90;;;;;;5047700;28;20052;-81
2021/11/13 12:05:56;;;;;;;8.73;4.25;;;8.20;99.90;;;;;;5074717;28;20049;-80
2021/11/13 12:08:26;;;;;;;10.10;5.20;;;8.40;99.90;;;;;;5050260;28;20135;-80
2021/11/13 12:11:16;;;;;;;10.27;4.93;;;8.30;99.90;;;;;;5085796;28;20040;-80
2021/11/13 12:13:47;;;;;;;9.02;4.38;;;8.50;99.90;;;;;;5047696;28;20104;-80
2021/11/13 12:16:23;;;;;;;10.77;4.72;;;8.50;99.90;;;;;;5056313;28;20084;-80
2021/11/13 12:18:54;;;;;;;11.38;5.35;;;8.50;99.90;;;;;;5075012;28;20051;-80
2021/11/13 12:21:29;;;;;;;11.03;4.83;;;8.50;99.90;;;;;;5075352;28;20136;-80
2021/11/13 12:24:07;;;;;;;10.07;5.05;;;8.60;99.90;;;;;;5075349;28;20064;-80
2021/11/13 12:26:38;;;;;;;11.05;4.20;;;8.60;99.90;;;;;;5073915;28;20052;-80
2021/11/13 12:29:13;;;;;;;10.90;4.75;;;8.60;99.90;;;;;;5061885;28;20150;-80
2021/11/13 12:31:45;;;;;;;11.40;5.22;;;8.60;99.90;;;;;;5091026;27;20072;-80
2021/11/13 12:34:18;;;;;;;11.27;4.37;;;8.40;99.90;;;;;;5043387;28;20094;-81
2021/11/13 12:36:57;;;;;;;12.50;6.47;;;8.50;99.90;;;;;;5044647;28;20049;-80
2021/11/13 12:39:29;;;;;;;13.73;6.55;;;8.40;99.90;;;;;;5063390;28;20053;-81
2021/11/13 12:42:06;;;;;;;14.38;6.03;;;8.40;99.90;;;;;;5046808;28;20060;-81
2021/11/13 12:44:41;;;;;;;13.82;5.45;;;8.40;99.90;;;;;;5075486;28;20049;-81
2021/11/13 12:47:16;;;;;;;12.30;5.90;;;8.30;99.90;;;;;;5046466;28;20052;-81
2021/11/13 12:49:52;;;;;;;11.80;5.13;;;8.50;99.90;;;;;;5048958;28;20049;-80
2021/11/13 12:52:24;;;;;;;11.35;5.53;;;8.50;99.90;;;;;;5055130;28;20091;-81
2021/11/13 12:55:18;;;;;;;14.82;5.22;;;8.50;99.90;;;;;;5075127;28;20048;-80
2021/11/13 12:58:13;;;;;;;11.68;5.82;;;8.50;99.90;;;;;;5074410;28;20049;-81
2021/11/13 13:00:47;;;;;;;11.40;4.67;;;8.60;99.90;;;;;;5065168;28;20040;-81
2021/11/13 13:03:23;;;;;;;13.43;5.13;;;8.70;99.90;;;;;;5064116;28;20052;-81
2021/11/13 13:06:07;;;;;;;13.07;5.43;;;8.60;99.90;;;;;;5076653;28;20056;-80
2021/11/13 13:08:37;;;;;;;11.65;4.78;;;8.60;99.90;;;;;;5055382;28;20071;-80
2021/11/13 13:11:11;;;;;;;10.85;5.25;;;8.70;99.90;;;;;;5056383;28;20135;-81
2021/11/13 13:13:41;;;;;;;11.93;5.27;;;8.80;99.90;;;;;;5050044;28;20574;-80
2021/11/13 13:16:13;;;;;;;9.55;4.70;;;8.80;99.90;;;;;;5048442;28;20422;-81
2021/11/13 13:18:43;;;;;;;10.68;4.43;;;8.80;99.90;;;;;;5075745;28;20045;-81
2021/11/13 13:21:18;;;;;;;9.40;4.18;;;8.80;99.90;;;;;;5078761;28;20058;-81
2021/11/13 13:23:47;;;;;;;9.57;4.97;;;8.90;99.90;;;;;;5056230;28;20045;-80
2021/11/13 13:26:19;;;;;;;9.83;4.80;;;8.90;99.90;;;;;;5055164;28;20051;-80
2021/11/13 13:28:49;;;;;;;16.02;5.15;;;8.90;99.90;;;;;;5043207;28;20040;-81
2021/11/13 13:31:23;;;;;;;10.13;4.43;;;8.90;99.90;;;;;;5087463;28;20069;-81
2021/11/13 13:33:54;;;;;;;10.85;4.75;;;8.90;99.90;;;;;;5072391;28;20053;-81
2021/11/13 13:36:26;;;;;;;10.95;4.85;;;8.80;99.90;;;;;;5060910;28;20051;-80
2021/11/13 13:38:56;;;;;;;10.53;4.87;;;8.80;99.90;;;;;;5056534;28;20091;-81
2021/11/13 13:41:25;;;;;;;11.95;4.70;;;8.70;99.90;;;;;;5075093;28;20044;-81
2021/11/13 13:43:54;;;;;;;10.13;5.13;;;8.70;99.90;;;;;;5054187;28;20052;-81
2021/11/13 13:46:26;;;;;;;10.98;4.85;;;8.80;99.90;;;;;;5066896;28;20045;-80
2021/11/13 13:48:59;;;;;;;12.38;5.07;;;8.50;99.90;;;;;;5062988;28;20052;-81
2021/11/13 13:51:33;;;;;;;12.40;4.93;;;8.60;99.90;;;;;;5065479;28;20049;-81
2021/11/13 13:54:06;;;;;;;14.15;4.80;;;8.60;99.90;;;;;;5069580;28;20052;-80
2021/11/13 13:56:40;;;;;;;12.13;4.65;;;8.60;99.90;;;;;;5087299;28;20052;-81
2021/11/13 13:59:21;;;;;;;8.95;5.28;;;8.50;99.90;;;;;;5093249;28;20052;-80
2021/11/13 14:01:55;;;;;;;9.48;5.15;;;8.70;99.90;;;;;;5071378;28;20203;-81
2021/11/13 14:04:26;;;;;;;12.60;4.83;;;8.70;99.90;;;;;;5061338;28;20060;-81
2021/11/13 14:07:07;;;;;;;12.50;5.03;;;8.60;99.90;;;;;;5070979;28;20049;-81
2021/11/13 14:09:39;;;;;;;12.40;5.43;;;8.70;99.90;;;;;;5066555;28;20052;-81
2021/11/13 14:12:08;;;;;;;14.10;5.45;;;8.70;99.90;;;;;;5066374;28;20143;-81
2021/11/13 14:14:38;;;;;;;13.63;5.28;;;8.70;99.90;;;;;;5073545;28;20102;-81
2021/11/13 14:17:16;;;;;;;15.37;5.10;;;8.70;99.90;;;;;;5072764;28;20072;-81
2021/11/13 14:19:45;;;;;;;9.15;5.25;;;8.70;99.90;;;;;;5051197;28;20054;-80
2021/11/13 14:22:54;;;;;;;11.10;5.75;;;8.80;99.90;;;;;;5052777;28;20040;-81
2021/11/13 14:25:23;;;;;;;13.55;5.45;;;8.70;99.90;;;;;;5049065;28;20134;-80
2021/11/13 14:28:00;;;;;;;12.88;5.85;;;8.80;99.90;;;;;;5045645;28;20068;-81
2021/11/13 14:30:56;;;;;;;8.03;4.20;;;8.80;99.90;;;;;;5096334;28;20051;-80
2021/11/13 14:33:25;;;;;;;8.85;4.80;;;8.90;99.90;;;;;;5073866;28;20138;-81
2021/11/13 14:35:54;;;;;;;9.43;4.78;;;8.80;99.90;;;;;;5070843;28;20126;-81